createdAt,value
2018-03-18T00:00:01.210Z,28.10
2018-03-18T00:02:28.431Z,28.10
2018-03-18T00:04:55.444Z,28.10
2018-03-18T00:07:22.446Z,28.10
2018-03-18T00:09:49.461Z,28.10
2018-03-18T00:12:16.686Z,28.10
2018-03-18T00:14:43.680Z,28.10
2018-03-18T00:17:11.788Z,28.10
2018-03-18T00:19:40.588Z,28.00
2018-03-18T00:22:07.642Z,28.00
2018-03-18T00:24:34.643Z,28.00
2018-03-18T00:27:01.646Z,28.00
2018-03-18T00:29:28.661Z,28.00
2018-03-18T00:31:56.454Z,28.00
2018-03-18T00:34:23.445Z,28.00
2018-03-18T00:36:50.449Z,28.00
2018-03-18T00:39:17.464Z,28.00
2018-03-18T00:41:45.228Z,28.00
2018-03-18T00:44:12.242Z,28.00
2018-03-18T00:46:39.246Z,28.00
2018-03-18T00:49:06.246Z,27.90
2018-03-18T00:51:33.254Z,27.90
2018-03-18T00:54:00.321Z,27.90
2018-03-18T00:56:27.313Z,27.90
2018-03-18T00:58:54.329Z,27.90
2018-03-18T01:01:21.339Z,27.90
2018-03-18T01:03:48.496Z,27.90
2018-03-18T01:06:15.725Z,27.90
2018-03-18T01:08:42.723Z,27.90
2018-03-18T01:11:09.749Z,27.90
2018-03-18T01:13:36.881Z,27.90
2018-03-18T01:16:03.878Z,27.90
2018-03-18T01:18:32.397Z,27.90
2018-03-18T01:20:59.432Z,27.90
2018-03-18T01:23:26.519Z,27.90
2018-03-18T01:25:53.525Z,27.90
2018-03-18T01:28:20.518Z,27.90
2018-03-18T01:30:47.516Z,27.90
2018-03-18T01:33:15.326Z,27.90
2018-03-18T01:35:42.313Z,27.90
2018-03-18T01:38:09.315Z,27.80
2018-03-18T01:40:36.318Z,27.80
2018-03-18T01:43:04.165Z,27.80
2018-03-18T01:45:31.127Z,27.80
2018-03-18T01:47:58.133Z,27.80
2018-03-18T01:50:25.136Z,28.30
2018-03-18T01:52:52.309Z,27.80
2018-03-18T01:55:19.300Z,27.80
2018-03-18T01:57:47.802Z,27.80
2018-03-18T02:00:14.868Z,27.80
2018-03-18T02:02:41.939Z,27.80
2018-03-18T02:05:08.947Z,27.80
2018-03-18T02:07:35.953Z,27.70
2018-03-18T02:10:02.946Z,27.70
2018-03-18T02:12:30.738Z,27.80
2018-03-18T02:14:57.732Z,27.70
2018-03-18T02:17:24.736Z,27.80
2018-03-18T02:19:51.738Z,27.70
2018-03-18T02:22:19.016Z,27.70
2018-03-18T02:24:45.941Z,27.70
2018-03-18T02:27:12.973Z,27.70
2018-03-18T02:29:39.979Z,27.60
2018-03-18T02:32:07.310Z,27.60
2018-03-18T02:34:34.297Z,27.60
2018-03-18T02:37:01.306Z,27.60
2018-03-18T02:39:28.297Z,27.60
2018-03-18T02:41:55.299Z,27.60
2018-03-18T02:44:22.294Z,27.60
2018-03-18T02:46:49.297Z,27.60
2018-03-18T02:49:16.317Z,27.60
2018-03-18T02:51:44.088Z,27.60
2018-03-18T02:54:11.092Z,27.60
2018-03-18T02:56:38.078Z,27.60
2018-03-18T02:59:05.844Z,27.60
2018-03-18T03:01:32.820Z,27.50
2018-03-18T03:03:59.972Z,27.50
2018-03-18T03:06:26.976Z,27.50
2018-03-18T03:08:53.982Z,27.50
2018-03-18T03:11:21.014Z,27.50
2018-03-18T03:13:48.171Z,27.50
2018-03-18T03:16:15.176Z,27.50
2018-03-18T03:18:42.199Z,27.50
2018-03-18T03:21:09.295Z,27.50
2018-03-18T03:23:36.376Z,27.50
2018-03-18T03:26:03.357Z,27.40
2018-03-18T03:28:31.871Z,27.50
2018-03-18T03:30:58.867Z,27.40
2018-03-18T03:33:25.972Z,27.50
2018-03-18T03:35:53.004Z,27.40
2018-03-18T03:38:20.005Z,27.40
2018-03-18T03:40:47.011Z,27.40
2018-03-18T03:43:14.174Z,27.40
2018-03-18T03:45:41.172Z,27.40
2018-03-18T03:48:08.178Z,27.40
2018-03-18T03:50:35.235Z,27.30
2018-03-18T03:53:02.364Z,27.30
2018-03-18T03:55:30.289Z,27.30
2018-03-18T03:57:58.068Z,27.40
2018-03-18T04:00:25.070Z,27.30
2018-03-18T04:02:52.189Z,27.30
2018-03-18T04:05:19.203Z,27.30
2018-03-18T04:07:46.201Z,27.30
2018-03-18T04:10:13.197Z,27.30
2018-03-18T04:12:40.988Z,27.30
2018-03-18T04:15:07.992Z,27.30
2018-03-18T04:17:35.780Z,27.30
2018-03-18T04:20:03.537Z,27.30
2018-03-18T04:22:30.624Z,27.30
2018-03-18T04:24:57.624Z,27.30
2018-03-18T04:27:24.627Z,27.30
2018-03-18T04:29:51.630Z,27.30
2018-03-18T04:32:19.436Z,27.20
2018-03-18T04:34:46.440Z,27.30
2018-03-18T04:37:13.477Z,27.20
2018-03-18T04:39:40.477Z,27.20
2018-03-18T04:42:07.618Z,27.20
2018-03-18T04:44:34.599Z,27.20
2018-03-18T04:47:01.600Z,27.20
2018-03-18T04:49:28.592Z,27.10
2018-03-18T04:51:55.589Z,27.10
2018-03-18T04:54:22.833Z,27.10
2018-03-18T04:56:49.818Z,27.10
2018-03-18T04:59:16.830Z,27.10
2018-03-18T05:01:43.821Z,27.10
2018-03-18T05:04:10.818Z,27.10
2018-03-18T05:06:37.825Z,27.10
2018-03-18T05:09:04.818Z,27.10
2018-03-18T05:11:31.828Z,27.10
2018-03-18T05:13:59.044Z,27.10
2018-03-18T05:16:26.057Z,27.00
2018-03-18T05:18:53.062Z,27.10
2018-03-18T05:21:21.566Z,27.10
2018-03-18T05:23:48.656Z,27.10
2018-03-18T05:26:15.649Z,27.10
2018-03-18T05:28:42.653Z,27.00
2018-03-18T05:31:09.634Z,27.00
2018-03-18T05:33:36.855Z,27.00
2018-03-18T05:36:03.837Z,27.00
2018-03-18T05:38:30.835Z,27.00
2018-03-18T05:40:57.824Z,27.00
2018-03-18T05:43:25.028Z,27.00
2018-03-18T05:45:52.028Z,27.00
2018-03-18T05:48:19.038Z,27.00
2018-03-18T05:50:46.037Z,27.00
2018-03-18T05:53:13.834Z,27.00
2018-03-18T05:55:40.834Z,27.10
2018-03-18T05:58:07.824Z,27.10
2018-03-18T06:00:34.817Z,27.10
2018-03-18T06:03:02.032Z,27.00
2018-03-18T06:05:29.036Z,27.00
2018-03-18T06:07:56.025Z,27.00
2018-03-18T06:10:23.018Z,27.00
2018-03-18T06:12:50.224Z,27.00
2018-03-18T06:15:17.231Z,26.90
2018-03-18T06:17:44.227Z,27.00
2018-03-18T06:20:11.228Z,27.00
2018-03-18T06:22:39.020Z,27.00
2018-03-18T06:25:06.017Z,27.00
2018-03-18T06:27:33.797Z,27.00
2018-03-18T06:30:01.589Z,27.10
2018-03-18T06:32:28.660Z,27.00
2018-03-18T06:34:55.678Z,27.10
2018-03-18T06:37:22.676Z,27.00
2018-03-18T06:39:49.758Z,27.00
2018-03-18T06:42:16.923Z,27.10
2018-03-18T06:44:43.932Z,27.00
2018-03-18T06:47:11.347Z,27.00
2018-03-18T06:49:38.369Z,27.00
2018-03-18T06:52:05.510Z,27.00
2018-03-18T06:54:33.261Z,27.00
2018-03-18T06:57:00.272Z,27.00
2018-03-18T06:59:27.263Z,27.00
2018-03-18T07:01:55.031Z,27.00
2018-03-18T07:04:22.069Z,27.00
2018-03-18T07:06:49.817Z,27.00
2018-03-18T07:09:16.821Z,27.00
2018-03-18T07:11:43.830Z,27.00
2018-03-18T07:14:10.845Z,27.00
2018-03-18T07:16:37.850Z,27.00
2018-03-18T07:19:04.948Z,27.00
2018-03-18T07:21:31.974Z,27.50
2018-03-18T07:23:59.101Z,27.00
2018-03-18T07:26:26.106Z,27.00
2018-03-18T07:28:53.106Z,27.00
2018-03-18T07:31:20.106Z,27.00
2018-03-18T07:33:47.907Z,27.00
2018-03-18T07:36:14.913Z,26.90
2018-03-18T07:38:41.936Z,27.00
2018-03-18T07:41:08.925Z,26.90
2018-03-18T07:43:36.726Z,27.00
2018-03-18T07:46:03.744Z,27.00
2018-03-18T07:48:30.787Z,27.00
2018-03-18T07:50:57.801Z,27.00
2018-03-18T07:53:24.920Z,26.90
2018-03-18T07:55:51.904Z,26.90
2018-03-18T07:58:18.916Z,26.90
2018-03-18T08:00:45.910Z,27.00
2018-03-18T08:03:13.707Z,26.90
2018-03-18T08:05:40.733Z,26.90
2018-03-18T08:08:07.747Z,26.90
2018-03-18T08:10:34.744Z,26.90
2018-03-18T08:13:01.900Z,27.00
2018-03-18T08:15:28.907Z,27.00
2018-03-18T08:17:56.669Z,26.90
2018-03-18T08:20:23.685Z,27.00
2018-03-18T08:22:50.917Z,27.00
2018-03-18T08:25:17.896Z,26.90
2018-03-18T08:27:44.948Z,27.00
2018-03-18T08:30:11.961Z,27.00
2018-03-18T08:32:39.110Z,26.90
2018-03-18T08:35:06.093Z,26.90
2018-03-18T08:37:33.091Z,26.90
2018-03-18T08:40:00.102Z,26.90
2018-03-18T08:42:27.301Z,26.90
2018-03-18T08:44:54.286Z,27.00
2018-03-18T08:47:22.049Z,26.90
2018-03-18T08:49:49.166Z,26.90
2018-03-18T08:52:16.300Z,27.00
2018-03-18T08:54:43.314Z,26.90
2018-03-18T08:57:10.347Z,26.90
2018-03-18T08:59:37.348Z,27.00
2018-03-18T09:02:04.497Z,27.00
2018-03-18T09:04:31.769Z,26.90
2018-03-18T09:06:59.597Z,27.00
2018-03-18T09:09:26.591Z,26.90
2018-03-18T09:11:53.715Z,27.00
2018-03-18T09:14:20.717Z,27.00
2018-03-18T09:16:47.716Z,27.00
2018-03-18T09:19:14.716Z,27.00
2018-03-18T09:21:42.515Z,27.00
2018-03-18T09:24:09.525Z,27.00
2018-03-18T09:26:36.536Z,27.00
2018-03-18T09:29:03.547Z,26.90
2018-03-18T09:31:30.551Z,26.90
2018-03-18T09:33:57.766Z,26.90
2018-03-18T09:36:24.986Z,26.90
2018-03-18T09:38:51.987Z,26.80
2018-03-18T09:41:19.022Z,26.80
2018-03-18T09:43:46.156Z,26.80
2018-03-18T09:46:13.169Z,26.70
2018-03-18T09:48:40.193Z,26.80
2018-03-18T09:51:07.270Z,27.00
2018-03-18T09:53:34.348Z,27.10
2018-03-18T09:56:01.343Z,27.00
2018-03-18T09:58:28.353Z,27.20
2018-03-18T10:00:55.347Z,27.30
2018-03-18T10:03:23.152Z,27.40
2018-03-18T10:05:50.155Z,27.40
2018-03-18T10:08:17.166Z,27.50
2018-03-18T10:10:44.172Z,27.50
2018-03-18T10:13:11.336Z,27.60
2018-03-18T10:15:38.325Z,27.60
2018-03-18T10:18:06.098Z,27.60
2018-03-18T10:20:33.101Z,27.60
2018-03-18T10:23:00.143Z,27.60
2018-03-18T10:25:27.141Z,27.90
2018-03-18T10:27:54.133Z,27.60
2018-03-18T10:30:21.133Z,27.60
2018-03-18T10:32:48.326Z,27.60
2018-03-18T10:35:15.355Z,27.60
2018-03-18T10:37:42.346Z,27.60
2018-03-18T10:40:09.375Z,27.60
2018-03-18T10:42:36.521Z,27.60
2018-03-18T10:45:03.524Z,27.60
2018-03-18T10:47:31.302Z,27.70
2018-03-18T10:49:59.070Z,27.70
2018-03-18T10:52:26.167Z,27.70
2018-03-18T10:54:53.174Z,27.80
2018-03-18T10:57:20.223Z,27.70
2018-03-18T10:59:47.242Z,27.70
2018-03-18T11:02:14.576Z,27.60
2018-03-18T11:04:41.616Z,27.60
2018-03-18T11:07:08.623Z,27.60
2018-03-18T11:09:35.634Z,27.60
2018-03-18T11:12:02.635Z,27.50
2018-03-18T11:14:29.628Z,27.50
2018-03-18T11:16:56.719Z,27.50
2018-03-18T11:19:23.713Z,27.40
2018-03-18T11:21:50.707Z,27.40
2018-03-18T11:24:17.725Z,27.40
2018-03-18T11:26:44.728Z,27.30
2018-03-18T11:29:11.732Z,27.20
2018-03-18T11:31:39.495Z,27.20
2018-03-18T11:34:06.509Z,27.20
2018-03-18T11:36:33.509Z,27.20
2018-03-18T11:39:00.551Z,27.20
2018-03-18T11:41:27.528Z,27.20
2018-03-18T11:43:54.621Z,27.20
2018-03-18T11:46:22.393Z,27.10
2018-03-18T11:48:49.411Z,27.10
2018-03-18T11:51:16.421Z,27.20
2018-03-18T11:53:43.587Z,27.10
2018-03-18T11:56:10.581Z,27.10
2018-03-18T11:58:37.600Z,27.10
2018-03-18T12:01:04.690Z,27.10
2018-03-18T12:03:31.758Z,27.10
2018-03-18T12:05:58.764Z,27.10
2018-03-18T12:08:25.818Z,27.10
2018-03-18T12:10:52.803Z,27.10
2018-03-18T12:13:19.958Z,27.00
2018-03-18T12:15:47.607Z,27.00
2018-03-18T12:18:14.640Z,27.00
2018-03-18T12:20:41.642Z,26.90
2018-03-18T12:23:08.758Z,27.20
2018-03-18T12:25:35.758Z,27.20
2018-03-18T12:28:02.816Z,27.20
2018-03-18T12:30:29.798Z,27.30
2018-03-18T12:32:56.949Z,27.30
2018-03-18T12:35:23.958Z,27.10
2018-03-18T12:37:50.958Z,27.10
2018-03-18T12:40:17.967Z,27.80
2018-03-18T12:42:45.406Z,28.20
2018-03-18T12:45:12.483Z,27.70
2018-03-18T12:47:39.481Z,27.60
2018-03-18T12:50:06.678Z,28.20
2018-03-18T12:52:33.757Z,27.40
2018-03-18T12:55:00.745Z,27.30
2018-03-18T12:57:27.899Z,27.40
2018-03-18T12:59:55.679Z,28.10
2018-03-18T13:02:23.880Z,28.00
2018-03-18T13:04:50.905Z,27.30
2018-03-18T13:07:17.957Z,27.20
2018-03-18T13:09:44.948Z,27.10
2018-03-18T13:12:12.157Z,27.50
2018-03-18T13:14:39.189Z,28.90
2018-03-18T13:17:06.210Z,28.70
2018-03-18T13:19:33.208Z,28.90
2018-03-18T13:22:00.228Z,28.30
2018-03-18T13:24:27.982Z,28.20
2018-03-18T13:26:54.977Z,28.20
2018-03-18T13:29:22.000Z,27.90
2018-03-18T13:31:49.014Z,27.90
2018-03-18T13:34:16.790Z,27.70
2018-03-18T13:36:43.779Z,27.70
2018-03-18T13:39:10.783Z,27.70
2018-03-18T13:41:38.548Z,27.70
2018-03-18T13:44:05.626Z,27.70
2018-03-18T13:46:32.623Z,27.60
2018-03-18T13:49:00.416Z,27.70
2018-03-18T13:51:27.432Z,27.70
2018-03-18T13:53:54.632Z,28.10
2018-03-18T13:56:21.641Z,28.20
2018-03-18T13:58:48.663Z,28.10
2018-03-18T14:01:15.675Z,28.00
2018-03-18T14:03:42.821Z,27.80
2018-03-18T14:06:09.872Z,27.60
2018-03-18T14:08:36.877Z,27.60
2018-03-18T14:11:04.674Z,27.50
2018-03-18T14:13:31.850Z,27.50
2018-03-18T14:15:58.873Z,27.40
2018-03-18T14:18:25.870Z,27.40
2018-03-18T14:20:52.877Z,27.30
2018-03-18T14:23:20.048Z,27.30
2018-03-18T14:25:47.054Z,27.20
2018-03-18T14:28:14.069Z,27.10
2018-03-18T14:30:41.073Z,27.00
2018-03-18T14:33:08.252Z,27.00
2018-03-18T14:35:35.239Z,27.00
2018-03-18T14:38:02.252Z,27.30
2018-03-18T14:40:29.245Z,27.20
2018-03-18T14:42:56.409Z,27.30
2018-03-18T14:45:23.406Z,27.40
2018-03-18T14:47:50.412Z,27.80
2018-03-18T14:50:17.412Z,28.00
2018-03-18T14:52:45.214Z,28.10
2018-03-18T14:55:12.241Z,28.10
2018-03-18T14:57:39.268Z,27.90
2018-03-18T15:00:06.324Z,27.80
2018-03-18T15:02:33.407Z,28.00
2018-03-18T15:05:00.975Z,28.10
2018-03-18T15:07:27.982Z,28.00
2018-03-18T15:09:55.789Z,28.00
2018-03-18T15:12:22.861Z,28.00
2018-03-18T15:14:49.848Z,28.10
2018-03-18T15:17:18.146Z,28.20
2018-03-18T15:19:45.143Z,28.10
2018-03-18T15:22:13.070Z,28.30
2018-03-18T15:24:40.093Z,28.30
2018-03-18T15:27:07.100Z,28.00
2018-03-18T15:29:34.109Z,28.00
2018-03-18T15:32:01.091Z,28.00
2018-03-18T15:34:28.091Z,28.30
2018-03-18T15:36:55.103Z,28.40
2018-03-18T15:39:22.112Z,28.00
2018-03-18T15:41:49.222Z,28.00
2018-03-18T15:44:16.222Z,27.90
2018-03-18T15:46:43.219Z,27.70
2018-03-18T15:49:10.241Z,27.90
2018-03-18T15:51:38.018Z,28.00
2018-03-18T15:54:05.177Z,27.90
2018-03-18T15:56:32.166Z,28.00
2018-03-18T15:58:59.172Z,28.00
2018-03-18T16:01:26.188Z,28.10
2018-03-18T16:03:53.278Z,28.60
2018-03-18T16:06:20.932Z,28.00
2018-03-18T16:08:48.003Z,28.00
2018-03-18T16:11:15.000Z,28.00
2018-03-18T16:13:42.092Z,27.90
2018-03-18T16:16:09.167Z,28.00
2018-03-18T16:18:36.197Z,27.90
2018-03-18T16:21:03.197Z,27.90
2018-03-18T16:23:30.288Z,27.80
2018-03-18T16:25:57.283Z,27.80
2018-03-18T16:28:24.278Z,27.80
2018-03-18T16:30:51.350Z,27.70
2018-03-18T16:33:18.555Z,27.70
2018-03-18T16:35:45.579Z,27.70
2018-03-18T16:38:12.580Z,27.60
2018-03-18T16:40:39.582Z,27.60
2018-03-18T16:43:06.664Z,27.60
2018-03-18T16:45:33.663Z,27.50
2018-03-18T16:48:00.687Z,27.50
2018-03-18T16:50:27.725Z,27.60
2018-03-18T16:52:54.853Z,27.60
2018-03-18T16:55:21.863Z,28.30
2018-03-18T16:57:48.919Z,27.80
2018-03-18T17:00:15.919Z,27.80
2018-03-18T17:02:43.053Z,27.70
2018-03-18T17:05:10.572Z,27.60
2018-03-18T17:07:37.701Z,27.60
2018-03-18T17:10:04.662Z,27.50
2018-03-18T17:12:32.474Z,27.40
2018-03-18T17:14:59.477Z,27.40
2018-03-18T17:17:27.812Z,27.30
2018-03-18T17:19:56.282Z,27.30
2018-03-18T17:22:23.322Z,27.30
2018-03-18T17:24:50.335Z,27.20
2018-03-18T17:27:17.352Z,27.20
2018-03-18T17:29:45.135Z,27.30
2018-03-18T17:32:12.976Z,27.30
2018-03-18T17:34:39.969Z,27.20
2018-03-18T17:37:06.979Z,27.30
2018-03-18T17:39:33.981Z,27.20
2018-03-18T17:42:00.988Z,27.20
2018-03-18T17:44:29.804Z,27.20
2018-03-18T17:46:56.834Z,27.20
2018-03-18T17:49:23.849Z,27.20
2018-03-18T17:51:50.852Z,27.10
2018-03-18T17:54:17.849Z,27.10
2018-03-18T17:56:46.426Z,27.50
2018-03-18T17:59:13.414Z,27.20
2018-03-18T18:01:40.454Z,27.20
2018-03-18T18:04:08.217Z,27.20
2018-03-18T18:06:35.229Z,27.20
2018-03-18T18:09:02.236Z,27.10
2018-03-18T18:11:29.274Z,27.10
2018-03-18T18:13:56.477Z,27.00
2018-03-18T18:16:23.614Z,27.10
2018-03-18T18:18:50.622Z,27.00
2018-03-18T18:21:17.623Z,27.10
2018-03-18T18:23:44.830Z,27.10
2018-03-18T18:26:12.069Z,27.10
2018-03-18T18:28:39.072Z,27.10
2018-03-18T18:31:06.073Z,27.10
2018-03-18T18:33:33.648Z,27.00
2018-03-18T18:36:00.674Z,27.00
2018-03-18T18:38:27.686Z,27.00
2018-03-18T18:40:54.734Z,27.00
2018-03-18T18:43:21.987Z,27.10
2018-03-18T18:45:48.964Z,27.00
2018-03-18T18:48:16.762Z,27.00
2018-03-18T18:50:44.351Z,27.10
2018-03-18T18:53:11.460Z,27.10
2018-03-18T18:55:38.650Z,27.00
2018-03-18T18:58:05.731Z,26.90
2018-03-18T19:00:32.750Z,27.00
2018-03-18T19:02:59.860Z,27.00
2018-03-18T19:05:26.857Z,26.80
2018-03-18T19:07:53.921Z,27.00
2018-03-18T19:10:20.922Z,27.00
2018-03-18T19:12:48.132Z,26.90
2018-03-18T19:15:15.779Z,26.90
2018-03-18T19:17:42.795Z,27.00
2018-03-18T19:20:09.836Z,26.90
2018-03-18T19:22:36.991Z,26.90
2018-03-18T19:25:04.845Z,26.90
2018-03-18T19:27:31.845Z,26.90
2018-03-18T19:29:58.864Z,26.80
2018-03-18T19:32:27.568Z,26.80
2018-03-18T19:34:54.565Z,26.90
2018-03-18T19:37:21.568Z,26.90
2018-03-18T19:39:49.390Z,26.90
2018-03-18T19:42:16.424Z,26.90
2018-03-18T19:44:43.435Z,26.80
2018-03-18T19:47:10.425Z,26.80
2018-03-18T19:49:37.449Z,26.80
2018-03-18T19:52:04.595Z,27.00
2018-03-18T19:54:31.588Z,26.80
2018-03-18T19:56:58.583Z,27.10
2018-03-18T19:59:25.586Z,27.00
2018-03-18T20:01:53.371Z,26.90
2018-03-18T20:04:20.405Z,26.90
2018-03-18T20:06:47.420Z,26.90
2018-03-18T20:09:14.449Z,26.80
2018-03-18T20:11:41.464Z,26.80
2018-03-18T20:14:08.633Z,26.70
2018-03-18T20:16:35.826Z,26.70
2018-03-18T20:19:02.842Z,26.70
2018-03-18T20:21:29.859Z,26.60
2018-03-18T20:23:57.048Z,26.70
2018-03-18T20:26:24.036Z,26.70
2018-03-18T20:28:51.048Z,26.70
2018-03-18T20:31:18.044Z,26.70
2018-03-18T20:33:45.842Z,26.70
2018-03-18T20:36:12.836Z,26.60
2018-03-18T20:38:39.846Z,26.70
2018-03-18T20:41:06.857Z,26.70
2018-03-18T20:43:34.029Z,26.70
2018-03-18T20:46:01.039Z,26.80
2018-03-18T20:48:28.066Z,26.80
2018-03-18T20:50:56.576Z,26.70
2018-03-18T20:53:23.644Z,26.70
2018-03-18T20:55:50.658Z,26.90
2018-03-18T20:58:17.655Z,26.80
2018-03-18T21:00:44.688Z,26.90
2018-03-18T21:03:12.658Z,27.10
2018-03-18T21:05:39.658Z,27.20
2018-03-18T21:08:06.729Z,27.20
2018-03-18T21:10:34.592Z,27.10
2018-03-18T21:13:01.852Z,26.90
2018-03-18T21:15:28.855Z,26.80
2018-03-18T21:17:55.872Z,26.80
2018-03-18T21:20:22.874Z,26.80
2018-03-18T21:22:50.715Z,26.70
2018-03-18T21:25:17.739Z,26.70
2018-03-18T21:27:44.729Z,26.70
2018-03-18T21:30:11.746Z,26.80
2018-03-18T21:32:38.881Z,26.90
2018-03-18T21:35:05.885Z,26.80
2018-03-18T21:37:32.881Z,26.70
2018-03-18T21:39:59.929Z,26.70
2018-03-18T21:42:27.051Z,26.70
2018-03-18T21:44:54.051Z,26.70
2018-03-18T21:47:22.306Z,26.70
2018-03-18T21:49:49.307Z,26.60
2018-03-18T21:52:17.116Z,26.60
2018-03-18T21:54:44.131Z,26.60
2018-03-18T21:57:12.078Z,26.50
2018-03-18T21:59:39.099Z,26.50
2018-03-18T22:02:06.301Z,26.50
2018-03-18T22:04:33.317Z,26.50
2018-03-18T22:07:00.513Z,26.50
2018-03-18T22:09:27.518Z,26.50
2018-03-18T22:11:55.280Z,26.50
2018-03-18T22:14:22.300Z,26.40
2018-03-18T22:16:50.468Z,26.40
2018-03-18T22:19:19.675Z,26.40
2018-03-18T22:21:46.768Z,26.40
2018-03-18T22:24:13.766Z,26.40
2018-03-18T22:26:40.779Z,26.40
2018-03-18T22:29:07.829Z,26.40
2018-03-18T22:31:35.869Z,26.40
2018-03-18T22:34:03.661Z,26.30
2018-03-18T22:36:31.092Z,26.30
2018-03-18T22:38:58.690Z,26.30
2018-03-18T22:41:26.817Z,26.30
2018-03-18T22:43:53.911Z,26.30
2018-03-18T22:46:20.918Z,26.20
2018-03-18T22:48:47.920Z,26.20
2018-03-18T22:51:14.916Z,26.20
2018-03-18T22:53:42.713Z,26.20
2018-03-18T22:56:10.062Z,26.20
2018-03-18T22:58:37.082Z,26.20
2018-03-18T23:01:04.872Z,26.20
2018-03-18T23:03:31.970Z,26.20
2018-03-18T23:05:58.986Z,26.20
2018-03-18T23:08:25.977Z,26.20
2018-03-18T23:10:52.978Z,26.20
2018-03-18T23:13:20.129Z,26.10
2018-03-18T23:15:47.129Z,26.20
2018-03-18T23:18:14.153Z,26.10
2018-03-18T23:20:41.163Z,26.10
2018-03-18T23:23:08.334Z,26.10
2018-03-18T23:25:35.333Z,26.10
2018-03-18T23:28:02.336Z,26.60
2018-03-18T23:30:29.385Z,26.00
2018-03-18T23:32:56.493Z,26.00
2018-03-18T23:35:23.495Z,26.00
2018-03-18T23:37:50.500Z,26.00
2018-03-18T23:40:17.503Z,26.00
2018-03-18T23:42:45.331Z,26.00
2018-03-18T23:45:12.358Z,26.00
2018-03-18T23:47:39.361Z,26.00
2018-03-18T23:50:06.383Z,26.00
2018-03-18T23:52:33.485Z,26.00
2018-03-18T23:55:00.510Z,26.00
2018-03-18T23:57:27.524Z,26.00
2018-03-18T23:59:54.530Z,26.00
